Time;durP1;ratioP1;P1;durP2;ratioP2;P2;SDS_P1;SDS_P2;PMS_P1;PMS_P2;Temp;Humidity;BMP_temperature;BMP_pressure;BME280_temperature;BME280_humidity;BME280_pressure;Samples;Min_cycle;Max_cycle;Signal;HPM_P1;HPM_P2
2023/05/22 00:01:36;;;;;;;33.60;23.30;;;;;;;19.38;100.00;101438.53;4954722;28;20054;-72
2023/05/22 00:04:03;;;;;;;29.92;23.38;;;;;;;19.38;100.00;101436.69;4962566;28;20062;-73
2023/05/22 00:06:30;;;;;;;31.08;23.95;;;;;;;19.35;100.00;101429.94;4955384;28;20869;-73
2023/05/22 00:08:56;;;;;;;33.40;23.98;;;;;;;19.35;100.00;101424.59;4938329;28;20081;-73
2023/05/22 00:11:23;;;;;;;33.95;25.20;;;;;;;19.36;100.00;101428.91;4959206;28;20088;-73
2023/05/22 00:13:50;;;;;;;29.90;24.17;;;;;;;19.34;100.00;101438.09;4938408;28;20050;-73
2023/05/22 00:16:16;;;;;;;37.17;25.98;;;;;;;19.33;100.00;101439.94;4960478;28;20119;-73
2023/05/22 00:18:43;;;;;;;31.27;24.20;;;;;;;19.34;100.00;101438.91;4960330;28;20050;-73
2023/05/22 00:21:10;;;;;;;31.10;23.70;;;;;;;19.34;100.00;101438.91;4961022;28;20458;-73
2023/05/22 00:23:37;;;;;;;31.73;24.92;;;;;;;19.34;100.00;101446.88;4962947;28;20510;-73
2023/05/22 00:26:03;;;;;;;27.70;23.38;;;;;;;19.32;100.00;101437.44;4956434;28;20322;-73
2023/05/22 00:28:30;;;;;;;30.33;24.20;;;;;;;19.28;100.00;101437.00;4951075;28;20042;-73
2023/05/22 00:30:56;;;;;;;32.10;23.98;;;;;;;19.24;100.00;101430.41;4961356;28;20400;-73
2023/05/22 00:33:23;;;;;;;29.35;22.65;;;;;;;19.22;100.00;101415.66;4966733;28;20047;-73
2023/05/22 00:35:50;;;;;;;29.55;21.70;;;;;;;19.18;100.00;101417.88;4964004;28;20511;-73
2023/05/22 00:38:31;;;;;;;30.83;21.92;;;;;;;19.08;100.00;101412.88;4958476;28;20057;-73
2023/05/22 00:40:59;;;;;;;31.95;22.77;;;;;;;19.02;100.00;101410.97;4962643;28;20059;-72
2023/05/22 00:43:26;;;;;;;30.65;20.42;;;;;;;19.00;100.00;101399.69;4945265;28;20083;-72
2023/05/22 00:45:53;;;;;;;33.60;21.92;;;;;;;18.99;100.00;101395.38;4964335;28;20145;-72
2023/05/22 00:48:23;;;;;;;29.05;19.98;;;;;;;18.95;100.00;101394.94;4959678;28;20069;-73
2023/05/22 00:50:52;;;;;;;30.33;21.40;;;;;;;18.87;100.00;101389.72;4958680;28;20113;-73
2023/05/22 00:53:20;;;;;;;30.63;21.20;;;;;;;18.85;100.00;101396.25;4945797;28;20051;-72
2023/05/22 00:55:47;;;;;;;26.42;20.20;;;;;;;18.81;100.00;101394.97;4964147;28;20519;-73
2023/05/22 00:58:16;;;;;;;27.45;20.58;;;;;;;18.77;100.00;101395.31;4967245;28;20058;-73
2023/05/22 01:00:44;;;;;;;31.90;21.10;;;;;;;18.73;100.00;101387.91;4944092;28;20133;-73
2023/05/22 01:03:11;;;;;;;25.00;19.70;;;;;;;18.73;100.00;101395.88;4966948;28;20051;-73
2023/05/22 01:05:39;;;;;;;31.37;22.23;;;;;;;18.74;100.00;101381.59;4956383;28;20371;-73
2023/05/22 01:08:07;;;;;;;27.70;20.65;;;;;;;18.68;100.00;101384.97;4953123;28;20055;-73
2023/05/22 01:10:37;;;;;;;30.27;21.75;;;;;;;18.67;100.00;101389.47;4960147;28;20137;-73
2023/05/22 01:13:41;;;;;;;29.92;22.02;;;;;;;18.68;100.00;101377.00;4941970;28;20142;-73
2023/05/22 01:16:29;;;;;;;26.50;19.67;;;;;;;18.68;100.00;101369.88;4946366;28;20051;-73
2023/05/22 01:19:24;;;;;;;28.15;20.13;;;;;;;18.66;100.00;101376.38;4959134;28;20047;-73
2023/05/22 01:22:06;;;;;;;27.05;20.92;;;;;;;18.64;100.00;101373.91;4947046;28;20431;-73
2023/05/22 01:25:25;;;;;;;27.48;19.98;;;;;;;18.66;100.00;101371.06;4961506;28;20047;-73
2023/05/22 01:28:01;;;;;;;25.58;18.75;;;;;;;18.63;100.00;101371.44;4902167;28;20050;-73
2023/05/22 01:30:58;;;;;;;26.35;19.50;;;;;;;18.70;100.00;101370.50;4957777;28;20081;-73
2023/05/22 01:33:27;;;;;;;26.45;20.15;;;;;;;18.69;100.00;101371.50;4948416;28;20051;-73
2023/05/22 01:35:57;;;;;;;30.30;22.35;;;;;;;18.65;100.00;101378.19;4955686;28;20047;-72
2023/05/22 01:38:24;;;;;;;28.77;19.95;;;;;;;18.61;100.00;101374.28;4960098;28;20106;-73
2023/05/22 01:40:52;;;;;;;25.88;19.65;;;;;;;18.58;100.00;101374.63;4953952;28;20383;-73
2023/05/22 01:43:19;;;;;;;29.02;21.52;;;;;;;18.52;100.00;101370.91;4959139;28;20058;-73
2023/05/22 01:45:46;;;;;;;26.33;19.85;;;;;;;18.47;100.00;101373.28;4971784;28;20054;-72
2023/05/22 01:48:13;;;;;;;34.38;21.83;;;;;;;18.45;100.00;101377.97;4954057;28;20519;-73
2023/05/22 01:50:39;;;;;;;30.02;21.58;;;;;;;18.47;100.00;101373.28;4957393;28;20090;-73
2023/05/22 01:53:28;;;;;;;27.00;21.52;;;;;;;18.42;100.00;101380.16;4966618;28;20116;-73
2023/05/22 01:56:06;;;;;;;28.90;21.52;;;;;;;18.42;100.00;101386.28;4954279;28;20110;-73
2023/05/22 01:58:47;;;;;;;28.17;21.35;;;;;;;18.39;100.00;101384.03;4958017;28;20059;-73
2023/05/22 02:01:16;;;;;;;27.30;20.40;;;;;;;18.41;100.00;101381.19;4962538;28;20055;-73
2023/05/22 02:03:45;;;;;;;28.08;21.27;;;;;;;18.36;100.00;101382.53;4957667;28;20137;-73
2023/05/22 02:06:13;;;;;;;26.15;21.02;;;;;;;18.37;100.00;101375.41;4948835;28;20054;-72
2023/05/22 02:08:41;;;;;;;32.92;21.63;;;;;;;18.36;100.00;101373.75;4949070;28;20053;-73
2023/05/22 02:11:10;;;;;;;28.63;20.85;;;;;;;18.27;100.00;101367.72;4952210;28;20557;-73
2023/05/22 02:13:36;;;;;;;28.55;21.02;;;;;;;18.26;100.00;101367.91;4954482;28;20057;-73
2023/05/22 02:16:03;;;;;;;27.90;21.27;;;;;;;18.26;100.00;101373.22;4963747;28;20054;-73
2023/05/22 02:18:30;;;;;;;28.50;21.13;;;;;;;18.24;100.00;101369.91;4964138;28;20073;-73
2023/05/22 02:20:57;;;;;;;29.60;21.35;;;;;;;18.22;100.00;101372.75;4941604;28;20054;-73
2023/05/22 02:23:25;;;;;;;27.17;20.40;;;;;;;18.15;100.00;101371.81;4963015;28;20105;-73
2023/05/22 02:25:52;;;;;;;26.25;20.38;;;;;;;18.14;100.00;101363.03;4973671;28;20129;-73
2023/05/22 02:28:18;;;;;;;30.08;21.90;;;;;;;18.10;100.00;101361.75;4941475;28;20342;-73
2023/05/22 02:30:45;;;;;;;28.77;21.38;;;;;;;18.09;100.00;101359.28;4959118;28;20482;-73
2023/05/22 02:33:11;;;;;;;29.27;21.13;;;;;;;18.07;100.00;101356.84;4960685;28;20062;-72
2023/05/22 02:35:38;;;;;;;29.67;20.55;;;;;;;18.06;100.00;101352.53;4958607;28;20452;-73
2023/05/22 02:38:05;;;;;;;25.55;20.08;;;;;;;18.05;100.00;101347.38;4939895;28;20057;-73
2023/05/22 02:40:31;;;;;;;31.45;20.65;;;;;;;18.01;100.00;101349.56;4960692;28;20739;-73
2023/05/22 02:42:58;;;;;;;31.27;21.58;;;;;;;17.94;100.00;101351.34;4952614;28;20066;-73
2023/05/22 02:45:25;;;;;;;27.45;21.40;;;;;;;17.92;100.00;101348.84;4951534;28;20059;-72
2023/05/22 02:47:51;;;;;;;27.55;19.65;;;;;;;17.87;100.00;101345.91;4959324;28;20062;-73
2023/05/22 02:50:18;;;;;;;31.15;21.08;;;;;;;17.79;100.00;101341.47;4943879;28;20051;-73
2023/05/22 02:52:45;;;;;;;27.60;20.38;;;;;;;17.77;100.00;101340.84;4976541;28;20101;-73
2023/05/22 02:55:11;;;;;;;28.67;21.00;;;;;;;17.75;100.00;101334.88;4926817;28;20577;-72
2023/05/22 02:57:38;;;;;;;28.23;21.08;;;;;;;17.70;100.00;101337.28;4963438;28;20132;-73
2023/05/22 03:00:10;;;;;;;30.92;21.05;;;;;;;17.71;100.00;101341.56;4960932;28;20054;-73
2023/05/22 03:02:37;;;;;;;25.17;20.27;;;;;;;17.68;100.00;101330.47;4964883;28;20055;-73
2023/05/22 03:05:05;;;;;;;30.83;21.33;;;;;;;17.68;100.00;101327.81;4956889;28;20571;-73
2023/05/22 03:07:31;;;;;;;25.63;19.45;;;;;;;17.66;100.00;101332.50;4940305;28;20050;-73
2023/05/22 03:09:58;;;;;;;26.90;20.15;;;;;;;17.62;100.00;101336.50;4942220;28;20262;-73
2023/05/22 03:12:24;;;;;;;35.53;20.10;;;;;;;17.56;100.00;101333.59;4951828;28;20138;-73
2023/05/22 03:14:51;;;;;;;27.88;20.23;;;;;;;17.56;100.00;101335.41;4969491;28;20054;-73
2023/05/22 03:17:17;;;;;;;26.90;20.58;;;;;;;17.51;100.00;101340.44;4952986;28;20106;-72
2023/05/22 03:19:44;;;;;;;27.33;20.23;;;;;;;17.47;100.00;101339.97;4938551;28;20055;-73
2023/05/22 03:22:11;;;;;;;24.02;18.70;;;;;;;17.49;100.00;101332.66;4956523;28;20406;-73
2023/05/22 03:24:37;;;;;;;27.48;20.98;;;;;;;17.45;100.00;101339.31;4941752;28;20057;-73
2023/05/22 03:27:04;;;;;;;32.38;19.67;;;;;;;17.36;100.00;101332.44;4954521;28;20874;-73
2023/05/22 03:29:31;;;;;;;24.42;19.52;;;;;;;17.31;100.00;101340.13;4943520;28;20304;-73
2023/05/22 03:31:58;;;;;;;27.02;19.13;;;;;;;17.20;100.00;101339.50;4954047;28;20503;-73
2023/05/22 03:34:26;;;;;;;27.23;20.57;;;;;;;17.20;100.00;101338.69;4944630;28;20061;-73
2023/05/22 03:36:52;;;;;;;26.30;20.13;;;;;;;17.15;100.00;101339.22;4953343;28;20057;-73
2023/05/22 03:39:19;;;;;;;28.30;20.65;;;;;;;17.12;100.00;101338.75;4963401;28;20121;-73
2023/05/22 03:41:45;;;;;;;25.52;18.02;;;;;;;17.12;100.00;101328.97;4954020;28;20574;-73
2023/05/22 03:44:12;;;;;;;30.08;22.45;;;;;;;17.11;100.00;101327.34;4962710;28;20158;-72
2023/05/22 03:46:39;;;;;;;27.50;21.27;;;;;;;17.05;100.00;101333.31;4946832;28;20058;-73
2023/05/22 03:49:05;;;;;;;26.73;20.02;;;;;;;17.05;100.00;101335.97;4945529;28;20129;-73
2023/05/22 03:51:32;;;;;;;28.65;20.75;;;;;;;17.05;100.00;101335.97;4966915;28;20059;-74
2023/05/22 03:53:58;;;;;;;25.92;20.80;;;;;;;17.07;100.00;101333.16;4977492;28;20145;-75
2023/05/22 03:56:25;;;;;;;27.70;20.55;;;;;;;17.06;100.00;101331.53;4968314;28;20566;-73
2023/05/22 03:58:52;;;;;;;28.55;21.30;;;;;;;17.03;100.00;101332.69;4959491;28;20047;-73
2023/05/22 04:01:19;;;;;;;29.15;21.50;;;;;;;17.02;100.00;101330.22;4962116;28;20105;-73
2023/05/22 04:03:46;;;;;;;26.50;19.63;;;;;;;17.00;100.00;101328.56;4963001;28;20054;-74
2023/05/22 04:06:13;;;;;;;28.65;21.42;;;;;;;17.00;100.00;101331.22;4953500;28;20491;-73
2023/05/22 04:08:40;;;;;;;27.42;21.08;;;;;;;16.96;100.00;101329.91;4952987;28;20076;-74
2023/05/22 04:11:07;;;;;;;28.42;21.08;;;;;;;16.96;100.00;101329.09;4964263;28;20118;-73
2023/05/22 04:13:33;;;;;;;27.40;20.80;;;;;;;16.96;100.00;101334.41;4982582;28;20259;-72
2023/05/22 04:16:00;;;;;;;28.10;19.98;;;;;;;16.91;100.00;101340.22;4963285;28;20050;-73
2023/05/22 04:18:27;;;;;;;25.58;20.13;;;;;;;16.94;100.00;101339.88;4963690;28;20062;-74
2023/05/22 04:20:54;;;;;;;26.60;20.10;;;;;;;16.91;100.00;101332.25;4967217;28;20051;-73
2023/05/22 04:23:21;;;;;;;26.45;20.95;;;;;;;16.88;100.00;101332.63;4960119;28;20491;-74
2023/05/22 04:25:48;;;;;;;29.65;20.80;;;;;;;16.82;100.00;101328.03;4957727;28;20134;-74
2023/05/22 04:28:21;;;;;;;32.45;21.50;;;;;;;16.76;100.00;101321.56;4952830;28;20138;-73
2023/05/22 04:30:48;;;;;;;31.70;20.27;;;;;;;16.82;100.00;101337.78;4942335;28;20147;-73
2023/05/22 04:33:15;;;;;;;26.67;21.20;;;;;;;16.82;100.00;101340.44;4959781;28;20526;-73
2023/05/22 04:35:41;;;;;;;30.98;21.63;;;;;;;16.80;100.00;101336.13;4966089;28;20059;-73
2023/05/22 04:38:08;;;;;;;31.08;20.80;;;;;;;16.83;100.00;101336.78;4953633;28;20059;-74
2023/05/22 04:40:36;;;;;;;28.38;20.23;;;;;;;16.83;100.00;101339.44;4955508;28;20039;-74
2023/05/22 04:43:03;;;;;;;30.60;23.15;;;;;;;16.77;100.00;101336.44;4954680;28;20065;-73
2023/05/22 04:45:30;;;;;;;33.28;22.08;;;;;;;16.73;100.00;101347.59;4960182;28;20109;-75
2023/05/22 04:47:56;;;;;;;31.58;22.02;;;;;;;16.66;100.00;101339.53;4967428;28;20046;-75
2023/05/22 04:50:23;;;;;;;32.22;21.20;;;;;;;16.68;100.00;101347.28;4972227;28;20054;-75
2023/05/22 04:52:50;;;;;;;27.77;22.15;;;;;;;16.71;100.00;101336.34;4961412;28;20117;-74
2023/05/22 04:55:17;;;;;;;30.67;22.75;;;;;;;16.72;100.00;101335.31;4961059;28;20054;-74
2023/05/22 04:57:46;;;;;;;34.05;23.25;;;;;;;16.79;100.00;101341.59;4952793;28;20054;-73
2023/05/22 05:00:14;;;;;;;30.42;22.70;;;;;;;16.77;100.00;101338.28;4970932;28;20132;-73
2023/05/22 05:02:41;;;;;;;29.15;21.85;;;;;;;16.78;100.00;101343.41;4951101;28;20097;-74
2023/05/22 05:05:08;;;;;;;32.10;23.13;;;;;;;16.73;100.00;101345.75;4964891;28;20149;-74
2023/05/22 05:07:38;;;;;;;30.33;23.52;;;;;;;16.69;100.00;101344.44;4960061;28;20055;-74
2023/05/22 05:10:06;;;;;;;34.75;24.25;;;;;;;16.64;100.00;101346.81;4958163;28;20415;-74
2023/05/22 05:12:32;;;;;;;36.33;24.53;;;;;;;16.63;100.00;101345.16;4951079;28;20047;-74
2023/05/22 05:14:59;;;;;;;35.08;24.92;;;;;;;16.66;100.00;101355.41;4952616;28;20508;-74
2023/05/22 05:17:26;;;;;;;32.75;23.55;;;;;;;16.67;100.00;101357.03;4947409;28;20436;-74
2023/05/22 05:19:52;;;;;;;38.67;24.27;;;;;;;16.70;100.00;101355.88;4953481;28;20054;-74
2023/05/22 05:22:19;;;;;;;32.63;24.00;;;;;;;16.70;100.00;101364.66;4964704;28;20050;-74
2023/05/22 05:24:45;;;;;;;30.92;23.33;;;;;;;16.67;100.00;101358.88;4950505;28;20392;-74
2023/05/22 05:27:12;;;;;;;33.17;24.00;;;;;;;16.71;100.00;101363.66;4969632;28;20070;-74
2023/05/22 05:29:40;;;;;;;32.17;24.55;;;;;;;16.72;100.00;101367.97;4961277;28;20066;-74
2023/05/22 05:32:06;;;;;;;29.33;21.77;;;;;;;16.69;100.00;101367.47;4948409;28;20059;-74
2023/05/22 05:34:33;;;;;;;27.20;21.98;;;;;;;16.69;100.00;101370.94;4944923;28;20061;-74
2023/05/22 05:37:01;;;;;;;27.00;22.75;;;;;;;16.67;100.00;101370.28;4955963;28;20543;-75
2023/05/22 05:39:28;;;;;;;26.25;21.40;;;;;;;16.64;100.00;101361.84;4956820;28;20066;-73
2023/05/22 05:41:55;;;;;;;21.77;18.95;;;;;;;16.58;100.00;101363.38;4958087;28;20057;-74
2023/05/22 05:44:21;;;;;;;22.58;19.85;;;;;;;16.55;100.00;101367.19;4959606;28;20492;-74
2023/05/22 05:46:48;;;;;;;25.42;21.60;;;;;;;16.54;100.00;101372.66;4969906;28;20058;-74
2023/05/22 05:49:14;;;;;;;24.30;21.10;;;;;;;16.48;100.00;101379.47;4941748;28;20129;-74
2023/05/22 05:51:41;;;;;;;23.73;21.17;;;;;;;16.54;100.00;101377.97;4940927;28;20168;-73
2023/05/22 05:54:07;;;;;;;24.98;22.27;;;;;;;16.51;100.00;101378.31;4941028;28;20085;-74
2023/05/22 05:56:34;;;;;;;24.25;20.33;;;;;;;16.50;100.00;101376.66;4957787;28;20059;-74
2023/05/22 05:59:01;;;;;;;22.73;20.02;;;;;;;16.51;100.00;101379.13;4960230;28;20054;-74
2023/05/22 06:01:30;;;;;;;24.75;21.40;;;;;;;16.53;100.00;101382.44;4971519;28;20058;-74
2023/05/22 06:03:58;;;;;;;25.77;20.67;;;;;;;16.59;100.00;101396.81;4956526;28;20065;-74
2023/05/22 06:06:24;;;;;;;23.85;20.42;;;;;;;16.58;100.00;101385.41;4934147;28;20408;-74
2023/05/22 06:08:51;;;;;;;24.80;20.30;;;;;;;16.57;100.00;101389.03;4951374;28;20051;-74
2023/05/22 06:11:18;;;;;;;27.30;22.33;;;;;;;16.54;100.00;101384.09;4947756;28;20525;-74
2023/05/22 06:13:44;;;;;;;26.23;22.00;;;;;;;16.55;100.00;101392.88;4953645;28;20130;-75
2023/05/22 06:16:11;;;;;;;27.25;22.13;;;;;;;16.65;100.00;101390.00;4956602;28;20058;-74
2023/05/22 06:18:38;;;;;;;26.98;23.15;;;;;;;16.73;100.00;101389.97;4936189;28;20082;-75
2023/05/22 06:21:04;;;;;;;25.67;20.95;;;;;;;16.78;100.00;101396.41;4956119;28;20082;-75
2023/05/22 06:23:31;;;;;;;24.90;20.65;;;;;;;16.94;100.00;101389.41;4957348;28;20085;-74
2023/05/22 06:25:57;;;;;;;27.77;23.17;;;;;;;16.96;100.00;101384.75;4968720;28;20055;-75
2023/05/22 06:28:24;;;;;;;27.95;22.55;;;;;;;16.99;100.00;101392.34;4951921;28;20519;-74
2023/05/22 06:30:51;;;;;;;26.45;22.40;;;;;;;17.07;100.00;101394.97;4960131;28;20060;-74
2023/05/22 06:33:17;;;;;;;27.73;22.92;;;;;;;17.20;100.00;101400.47;4942908;28;20058;-74
2023/05/22 06:35:44;;;;;;;26.73;22.27;;;;;;;17.16;100.00;101385.13;4936386;28;20050;-74
2023/05/22 06:38:10;;;;;;;21.65;18.67;;;;;;;17.32;100.00;101397.44;4963244;28;20411;-75
2023/05/22 06:40:37;;;;;;;27.63;21.48;;;;;;;17.30;100.00;101404.75;4942603;28;20051;-75
2023/05/22 06:43:04;;;;;;;26.35;22.08;;;;;;;17.37;100.00;101401.22;4943632;28;20389;-75
2023/05/22 06:45:30;;;;;;;29.77;23.40;;;;;;;17.45;100.00;101405.63;4942784;28;20492;-75
2023/05/22 06:47:57;;;;;;;31.20;24.20;;;;;;;17.49;100.00;101404.25;4953260;28;20573;-74
2023/05/22 06:50:24;;;;;;;28.25;23.13;;;;;;;17.52;100.00;101408.38;4962696;28;20102;-75
2023/05/22 06:52:50;;;;;;;28.20;23.95;;;;;;;17.50;100.00;101405.09;4957938;28;20094;-75
2023/05/22 06:55:17;;;;;;;27.70;23.00;;;;;;;17.46;100.00;101399.31;4980925;28;20475;-75
2023/05/22 06:57:43;;;;;;;25.02;21.88;;;;;;;17.50;100.00;101402.44;4939808;28;20058;-75
2023/05/22 07:00:11;;;;;;;25.52;21.67;;;;;;;17.53;100.00;101400.25;4943429;28;20038;-75
2023/05/22 07:02:38;;;;;;;26.92;22.45;;;;;;;17.63;100.00;101412.44;4959709;28;20058;-75
2023/05/22 07:05:05;;;;;;;24.10;21.30;;;;;;;17.62;100.00;101408.13;4955711;28;20046;-75
2023/05/22 07:07:32;;;;;;;25.10;22.00;;;;;;;17.66;100.00;101404.13;4961594;28;20144;-74
2023/05/22 07:09:59;;;;;;;26.10;23.02;;;;;;;17.72;100.00;101408.69;4955189;28;20058;-73
2023/05/22 07:12:26;;;;;;;25.77;21.58;;;;;;;17.79;100.00;101407.81;4963369;28;20047;-75
2023/05/22 07:14:53;;;;;;;27.15;22.17;;;;;;;17.83;100.00;101413.59;4936872;28;20149;-74
2023/05/22 07:17:20;;;;;;;29.48;22.98;;;;;;;17.88;100.00;101415.75;4954229;28;20491;-75
2023/05/22 07:19:47;;;;;;;23.80;20.90;;;;;;;17.93;100.00;101416.03;4962779;28;20047;-75
2023/05/22 07:22:14;;;;;;;27.42;22.15;;;;;;;17.93;100.00;101411.53;4936066;29;20047;-75
2023/05/22 07:24:42;;;;;;;27.17;22.88;;;;;;;18.04;100.00;101409.47;4945249;28;20057;-75
2023/05/22 07:27:10;;;;;;;25.23;22.23;;;;;;;18.15;100.00;101417.81;4951037;28;20105;-74
2023/05/22 07:29:36;;;;;;;;;;;;;;;18.26;100.00;101411.19;4952627;28;20050;-75
2023/05/22 07:32:03;;;;;;;28.25;22.30;;;;;;;18.36;100.00;101413.59;4943768;28;20512;-75
2023/05/22 07:34:33;;;;;;;25.83;22.30;;;;;;;18.41;100.00;101411.22;4957175;28;20078;-76
2023/05/22 07:37:06;;;;;;;25.27;21.48;;;;;;;18.53;100.00;101417.72;4958941;28;20067;-75
2023/05/22 07:39:32;;;;;;;29.13;21.92;;;;;;;18.57;100.00;101418.16;4951967;28;20415;-76
2023/05/22 07:41:59;;;;;;;22.75;19.55;;;;;;;18.64;100.00;101415.59;4956372;28;20374;-75
2023/05/22 07:44:27;;;;;;;24.38;21.13;;;;;;;18.75;100.00;101415.13;4952712;28;20054;-75
2023/05/22 07:46:54;;;;;;;22.50;19.17;;;;;;;18.83;100.00;101423.00;4962003;28;20870;-75
2023/05/22 07:49:22;;;;;;;21.23;17.05;;;;;;;18.92;100.00;101423.75;4934433;28;20059;-75
2023/05/22 07:51:49;;;;;;;22.90;19.25;;;;;;;19.02;100.00;101421.59;4932970;28;20071;-74
2023/05/22 07:54:16;;;;;;;26.85;20.90;;;;;;;19.09;100.00;101421.66;4956824;28;20078;-75
2023/05/22 07:56:44;;;;;;;28.80;20.27;;;;;;;19.19;100.00;101432.00;4931324;28;20514;-76
2023/05/22 07:59:11;;;;;;;25.00;20.70;;;;;;;19.23;100.00;101422.63;4954521;28;20112;-75
2023/05/22 08:01:39;;;;;;;24.42;20.05;;;;;;;19.32;100.00;101432.13;4953259;28;20050;-76
2023/05/22 08:04:05;;;;;;;22.67;18.92;;;;;;;19.36;100.00;101428.09;4955094;28;20054;-75
2023/05/22 08:06:35;;;;;;;23.27;18.50;;;;;;;19.43;100.00;101428.97;4949557;28;20582;-75
2023/05/22 08:09:03;;;;;;;22.65;19.02;;;;;;;19.49;100.00;101428.22;4950513;28;20543;-74
2023/05/22 08:11:30;;;;;;;23.75;20.27;;;;;;;19.57;100.00;101435.25;4960865;28;20420;-74
2023/05/22 08:13:57;;;;;;;24.33;19.67;;;;;;;19.67;100.00;101437.59;4941159;28;20499;-74
2023/05/22 08:16:23;;;;;;;20.35;17.60;;;;;;;19.77;100.00;101437.28;4945031;28;20044;-73
2023/05/22 08:18:50;;;;;;;20.27;17.98;;;;;;;19.85;100.00;101434.47;4941880;28;20055;-75
2023/05/22 08:21:17;;;;;;;24.27;16.63;;;;;;;19.99;100.00;101438.06;4931129;28;20485;-74
2023/05/22 08:23:44;;;;;;;22.90;19.23;;;;;;;20.10;100.00;101424.22;4935580;28;20062;-74
2023/05/22 08:26:11;;;;;;;21.75;17.67;;;;;;;20.33;100.00;101434.63;4957161;28;20063;-74
2023/05/22 08:28:42;;;;;;;22.88;18.55;;;;;;;20.48;100.00;101432.66;4963355;28;20050;-75
2023/05/22 08:31:10;;;;;;;21.45;18.33;;;;;;;20.82;100.00;101430.16;4956337;28;20086;-75
2023/05/22 08:33:37;;;;;;;20.60;18.05;;;;;;;21.13;100.00;101427.00;4945914;28;20421;-74
2023/05/22 08:36:04;;;;;;;21.48;18.50;;;;;;;21.44;100.00;101426.44;4935859;28;20193;-74
2023/05/22 08:38:30;;;;;;;22.27;18.67;;;;;;;21.75;100.00;101422.34;4961837;28;20133;-74
2023/05/22 08:40:57;;;;;;;22.75;18.48;;;;;;;22.01;100.00;101426.00;4947903;28;20102;-74
2023/05/22 08:43:24;;;;;;;25.65;19.85;;;;;;;22.26;100.00;101427.03;4974200;28;20323;-74
2023/05/22 08:46:03;;;;;;;20.45;17.85;;;;;;;22.54;100.00;101414.41;4961288;28;20419;-74
2023/05/22 08:48:31;;;;;;;21.30;17.75;;;;;;;22.81;100.00;101418.59;4955911;28;20128;-74
2023/05/22 08:51:01;;;;;;;;;;;;;;;23.03;100.00;101411.13;4966810;28;20058;-74
2023/05/22 08:53:30;;;;;;;19.90;17.50;;;;;;;23.14;100.00;101412.28;4950881;28;19925;-74
2023/05/22 08:55:56;;;;;;;19.08;17.05;;;;;;;23.40;100.00;101408.59;4967618;28;20133;-74
2023/05/22 08:58:23;;;;;;;20.13;17.40;;;;;;;23.58;100.00;101418.56;4952323;28;20062;-73
2023/05/22 09:00:51;;;;;;;19.50;17.33;;;;;;;23.76;100.00;101408.97;4965551;28;20051;-74
2023/05/22 09:03:20;;;;;;;20.90;18.02;;;;;;;23.94;100.00;101409.00;4954236;28;20062;-74
2023/05/22 09:05:48;;;;;;;22.83;19.05;;;;;;;24.08;100.00;101407.81;4951530;28;20046;-73
2023/05/22 09:08:15;;;;;;;18.65;16.65;;;;;;;24.23;100.00;101401.31;4960815;28;20142;-74
2023/05/22 09:10:46;;;;;;;23.63;17.70;;;;;;;24.46;100.00;101400.59;4956619;28;20069;-74
2023/05/22 09:13:23;;;;;;;20.77;16.98;;;;;;;24.63;94.00;101398.16;4962835;28;20054;-73
2023/05/22 09:15:49;;;;;;;26.05;17.25;;;;;;;24.55;100.00;101401.97;4962487;28;20051;-73
2023/05/22 09:18:16;;;;;;;21.13;17.70;;;;;;;24.69;94.27;101407.97;4954724;28;20059;-74
2023/05/22 09:20:42;;;;;;;21.88;17.42;;;;;;;24.78;92.10;101411.19;4963964;28;20384;-73
2023/05/22 09:23:16;;;;;;;17.88;15.98;;;;;;;24.62;94.24;101405.41;4946512;28;20403;-74
2023/05/22 09:25:43;;;;;;;19.27;14.52;;;;;;;24.54;94.83;101407.56;4961407;28;20034;-73
2023/05/22 09:28:11;;;;;;;17.58;15.77;;;;;;;24.48;100.00;101407.41;4978778;28;20041;-73
2023/05/22 09:30:38;;;;;;;18.42;15.15;;;;;;;24.36;99.60;101409.16;4987438;28;20127;-73
2023/05/22 09:33:07;;;;;;;16.33;14.68;;;;;;;24.35;100.00;101399.50;4964501;28;20565;-73
2023/05/22 09:35:37;;;;;;;15.73;14.02;;;;;;;24.49;99.29;101402.84;4964553;28;20057;-73
2023/05/22 09:38:05;;;;;;;18.25;13.23;;;;;;;24.75;88.00;101395.53;4967062;28;20577;-73
2023/05/22 09:40:33;;;;;;;16.27;12.75;;;;;;;25.02;88.74;101401.34;4959789;28;20439;-73
2023/05/22 09:43:05;;;;;;;16.25;12.68;;;;;;;25.36;85.81;101399.00;4964714;28;20142;-74
2023/05/22 09:45:34;;;;;;;16.23;14.02;;;;;;;25.78;86.92;101393.56;4940895;28;20117;-74
2023/05/22 09:48:05;;;;;;;15.52;13.93;;;;;;;25.69;78.50;101394.97;4959262;28;20055;-73
2023/05/22 09:50:32;;;;;;;13.25;11.73;;;;;;;25.62;86.57;101395.91;4945908;28;20058;-73
2023/05/22 09:53:04;;;;;;;14.82;13.23;;;;;;;25.90;84.94;101396.25;4968211;28;20515;-73
2023/05/22 09:55:31;;;;;;;17.17;13.57;;;;;;;25.91;79.62;101392.53;4958815;28;20058;-73
2023/05/22 09:58:01;;;;;;;19.83;17.00;;;;;;;25.83;80.73;101391.81;4939575;28;20050;-74
2023/05/22 10:00:33;;;;;;;14.57;13.07;;;;;;;25.71;81.88;101398.22;4958606;28;20164;-75
2023/05/22 10:03:10;;;;;;;13.45;12.05;;;;;;;25.56;82.99;101399.50;4971370;28;20113;-74
2023/05/22 10:05:39;;;;;;;;;;;;;;;25.40;83.17;101398.34;4959819;28;20055;-75
2023/05/22 10:08:27;;;;;;;11.70;10.38;;;;;;;25.22;75.50;101396.53;4957066;28;19926;-75
2023/05/22 10:10:54;;;;;;;10.07;9.02;;;;;;;25.53;73.54;101391.09;4959286;28;20586;-74
2023/05/22 10:13:21;;;;;;;11.70;8.77;;;;;;;25.64;64.44;101383.03;4953482;28;20105;-73
2023/05/22 10:15:48;;;;;;;11.45;9.93;;;;;;;25.98;69.17;101383.28;4957418;28;20459;-74
2023/05/22 10:18:16;;;;;;;11.57;10.20;;;;;;;26.30;68.02;101382.06;4970238;28;20077;-74
2023/05/22 10:20:45;;;;;;;10.65;9.10;;;;;;;26.69;70.00;101377.75;4974393;28;20141;-74
2023/05/22 10:23:15;;;;;;;11.95;9.38;;;;;;;26.99;66.82;101379.34;4982017;28;20062;-74
2023/05/22 10:25:44;;;;;;;10.75;9.68;;;;;;;27.31;66.56;101376.16;4959146;28;20052;-74
2023/05/22 10:28:18;;;;;;;61.65;53.50;;;;;;;27.55;64.99;101377.59;4959583;28;20527;-73
2023/05/22 10:30:55;;;;;;;13.80;12.13;;;;;;;27.88;64.84;101375.16;4937510;28;20566;-74
2023/05/22 10:33:26;;;;;;;15.05;11.15;;;;;;;27.94;60.53;101372.25;4959393;28;20118;-74
2023/05/22 10:36:26;;;;;;;15.70;14.07;;;;;;;27.80;64.19;101379.84;4961910;28;20140;-73
2023/05/22 10:38:56;;;;;;;18.50;16.55;;;;;;;27.23;67.98;101374.66;4948891;28;20499;-74
2023/05/22 10:41:23;;;;;;;20.35;17.55;;;;;;;26.94;63.70;101369.31;4963219;28;20054;-73
2023/05/22 10:43:50;;;;;;;16.20;14.60;;;;;;;26.82;75.98;101364.00;4960346;28;20566;-75
2023/05/22 10:46:17;;;;;;;14.00;12.60;;;;;;;26.79;74.70;101364.47;4946591;28;20083;-74
2023/05/22 10:48:46;;;;;;;12.90;11.60;;;;;;;26.94;67.34;101363.94;4946861;28;20090;-74
2023/05/22 10:51:14;;;;;;;14.27;12.48;;;;;;;27.27;71.94;101362.38;4975254;28;20097;-73
2023/05/22 10:53:46;;;;;;;14.70;12.70;;;;;;;27.59;74.83;101365.25;4949719;28;20595;-74
2023/05/22 10:56:15;;;;;;;17.27;15.43;;;;;;;27.61;64.11;101365.03;4940654;28;20090;-73
2023/05/22 10:58:44;;;;;;;21.15;18.08;;;;;;;27.67;64.71;101372.13;4960455;28;20059;-73
2023/05/22 11:01:19;;;;;;;19.27;17.27;;;;;;;27.88;67.36;101377.84;4955819;28;20713;-73
2023/05/22 11:04:09;;;;;;;18.25;16.45;;;;;;;27.98;65.06;101370.69;4949833;28;20057;-73
2023/05/22 11:06:55;;;;;;;18.77;16.88;;;;;;;27.47;62.79;101358.34;4960281;28;20052;-73
2023/05/22 11:09:47;;;;;;;19.17;17.15;;;;;;;27.85;67.60;101360.22;4952684;28;20086;-74
2023/05/22 11:12:18;;;;;;;18.77;16.13;;;;;;;28.20;66.44;101359.09;4942809;28;20054;-73